Terminal Aerodrome Forecast
Issued by NWS Portland, OR

Home | Current Version | Previous Version | Text Only | Print | Product List | Glossary On
Versions: 1 2 3 4 5 6 7 8 9 10 11 12 13 14 15 16 17 18 19 20 21 22 23 24 25 26 27 28 29 30
575
FTUS46 KPQR 270524
TAFEUG
TAF
KEUG 270524Z 2706/2806 36008KT P6SM SKC
     FM270800 36004KT P6SM SKC
     FM271900 01013KT P6SM SKC
     FM280300 35008KT P6SM SKC=

USA.gov is the U.S. government's official web portal to all federal, state and local government web resources and services.